Time;durP1;ratioP1;P1;durP2;ratioP2;P2;SDS_P1;SDS_P2;PMS_P1;PMS_P2;Temp;Humidity;BMP_temperature;BMP_pressure;BME280_temperature;BME280_humidity;BME280_pressure;Samples;Min_cycle;Max_cycle;Signal;HPM_P1;HPM_P2
2021/01/26 00:01:21;;;;;;;23.40;13.90;;;;;;;6.02;100.00;99996.06;5036021;28;20021;-73
2021/01/26 00:04:06;;;;;;;12.18;8.38;;;;;;;6.04;100.00;100009.94;5037459;28;20022;-74
2021/01/26 00:06:52;;;;;;;15.18;7.95;;;;;;;6.14;100.00;100008.94;5036439;28;20108;-73
2021/01/26 00:09:38;;;;;;;11.27;7.95;;;;;;;6.46;100.00;100003.34;5021488;28;20033;-73
2021/01/26 00:12:24;;;;;;;15.18;9.02;;;;;;;6.34;100.00;99993.13;5021788;28;20022;-73
2021/01/26 00:15:10;;;;;;;13.80;8.52;;;;;;;6.18;100.00;100001.97;5035603;28;20343;-73
2021/01/26 00:17:56;;;;;;;15.05;9.75;;;;;;;6.06;100.00;100018.56;5036623;28;20061;-73
2021/01/26 00:20:43;;;;;;;19.00;11.18;;;;;;;6.20;100.00;100018.41;5035044;28;20362;-73
2021/01/26 00:23:29;;;;;;;18.40;12.45;;;;;;;5.92;100.00;100024.78;5021050;28;20049;-72
2021/01/26 00:26:17;;;;;;;19.13;10.20;;;;;;;6.37;100.00;100026.88;5034394;28;20029;-74
2021/01/26 00:29:10;;;;;;;20.15;12.10;;;;;;;6.19;100.00;100012.34;5021163;28;20048;-72
2021/01/26 00:31:56;;;;;;;19.33;11.85;;;;;;;6.26;100.00;99994.94;5035449;28;20033;-72
2021/01/26 00:34:41;;;;;;;14.45;9.90;;;;;;;6.15;100.00;99979.44;5036104;28;20405;-72
2021/01/26 00:37:27;;;;;;;11.15;7.45;;;;;;;6.38;100.00;99955.78;5035510;28;20025;-72
2021/01/26 00:40:15;;;;;;;9.68;7.43;;;;;;;6.31;100.00;99948.94;5035404;28;20025;-73
2021/01/26 00:43:01;;;;;;;9.98;7.20;;;;;;;6.10;100.00;99946.59;5034803;28;20462;-73
2021/01/26 00:45:47;;;;;;;9.75;6.90;;;;;;;5.85;100.00;99951.19;5020565;28;20212;-72
2021/01/26 00:48:33;;;;;;;8.95;6.60;;;;;;;6.06;100.00;99968.31;5036052;28;20361;-73
2021/01/26 00:51:19;;;;;;;8.85;6.57;;;;;;;6.09;100.00;99958.72;5035315;28;20357;-73
2021/01/26 00:54:05;;;;;;;9.50;6.13;;;;;;;5.78;100.00;99959.91;5035932;28;20029;-73
2021/01/26 00:56:50;;;;;;;9.20;6.55;;;;;;;6.03;100.00;99965.75;5021256;28;20037;-73
2021/01/26 00:59:37;;;;;;;9.02;6.75;;;;;;;5.85;100.00;99971.13;5035724;28;20033;-73
2021/01/26 01:02:23;;;;;;;9.55;7.13;;;;;;;5.83;100.00;99959.91;5034345;28;20373;-73
2021/01/26 01:05:09;;;;;;;9.35;6.65;;;;;;;5.74;100.00;99976.41;5036412;28;20086;-73
2021/01/26 01:07:55;;;;;;;9.13;6.63;;;;;;;5.73;100.00;99966.88;5035149;28;20449;-72
2021/01/26 01:10:41;;;;;;;12.15;7.30;;;;;;;5.92;100.00;99977.97;5034757;28;20030;-72
2021/01/26 01:13:27;;;;;;;10.93;7.00;;;;;;;6.25;100.00;99999.28;5020210;28;20108;-73
2021/01/26 01:16:13;;;;;;;12.48;8.02;;;;;;;6.17;100.00;99980.31;5021370;28;20044;-72
2021/01/26 01:18:59;;;;;;;14.40;9.40;;;;;;;6.11;100.00;99966.50;5035835;28;20033;-72
2021/01/26 01:21:46;;;;;;;14.10;9.15;;;;;;;5.44;100.00;99959.34;5034916;28;20029;-72
2021/01/26 01:24:32;;;;;;;15.35;10.00;;;;;;;5.51;100.00;99962.78;5020642;28;20017;-73
2021/01/26 01:27:18;;;;;;;15.20;10.10;;;;;;;5.60;100.00;99954.03;5020232;28;20029;-73
2021/01/26 01:30:06;;;;;;;12.80;8.77;;;;;;;5.22;100.00;99962.16;5035667;28;20033;-73
2021/01/26 01:55:04;;;;;;;24.45;14.13;;;;;;;5.46;100.00;99940.31;5893828;23;22728;-72
2021/01/26 01:57:59;;;;;;;25.02;13.18;;;;;;;5.40;100.00;99949.03;4960907;28;20042;-72
2021/01/26 02:00:52;;;;;;;20.65;12.75;;;;;;;4.86;100.00;99954.63;4976048;28;20054;-72
2021/01/26 02:03:42;;;;;;;19.92;11.45;;;;;;;5.24;100.00;99950.03;4957275;28;20519;-72
2021/01/26 02:06:35;;;;;;;19.35;12.23;;;;;;;5.03;100.00;99947.63;4957026;29;20079;-72
2021/01/26 02:09:28;;;;;;;20.85;12.70;;;;;;;5.03;100.00;99961.44;4956568;29;20024;-72
2021/01/26 02:12:13;;;;;;;17.52;11.88;;;;;;;5.07;100.00;99939.78;4956064;28;20031;-73
2021/01/26 02:14:59;;;;;;;16.00;11.48;;;;;;;4.93;100.00;99940.75;4955967;29;20467;-73
2021/01/26 02:17:54;;;;;;;19.85;11.68;;;;;;;4.84;100.00;99938.22;4956795;29;20039;-73
2021/01/26 02:20:42;;;;;;;15.18;9.82;;;;;;;4.82;100.00;99932.19;4956666;28;20031;-72
2021/01/26 02:23:55;;;;;;;19.52;10.90;;;;;;;4.47;100.00;99924.63;4956844;28;20380;-72
2021/01/26 02:27:05;;;;;;;15.55;10.30;;;;;;;4.66;100.00;99927.97;4956795;28;20059;-72
2021/01/26 02:30:09;;;;;;;16.83;11.05;;;;;;;4.31;100.00;99924.72;4956368;29;20384;-72
2021/01/26 02:33:23;;;;;;;17.15;11.55;;;;;;;4.32;100.00;99911.78;4956196;28;20056;-73
2021/01/26 02:36:36;;;;;;;16.08;10.55;;;;;;;4.56;100.00;99927.19;4957216;28;20027;-72
2021/01/26 02:39:37;;;;;;;18.67;11.43;;;;;;;4.49;100.00;99929.81;4955750;29;20031;-71
2021/01/26 02:42:48;;;;;;;14.55;10.40;;;;;;;4.48;100.00;99933.28;4957062;28;20027;-72
2021/01/26 02:45:47;;;;;;;17.48;10.85;;;;;;;4.16;100.00;99942.94;4956379;29;20031;-74
2021/01/26 02:48:49;;;;;;;16.25;10.98;;;;;;;4.34;100.00;99933.34;4956255;29;20035;-74
2021/01/26 02:52:02;;;;;;;14.43;9.38;;;;;;;4.27;100.00;99931.66;4943847;28;20154;-73
2021/01/26 02:55:04;;;;;;;16.25;10.60;;;;;;;4.06;100.00;99921.38;4943783;28;20432;-74
2021/01/26 02:57:59;;;;;;;15.32;9.75;;;;;;;4.19;100.00;99904.06;4955745;29;20109;-73
2021/01/26 03:00:52;;;;;;;15.20;10.27;;;;;;;3.85;100.00;99908.50;4956895;28;20072;-73
2021/01/26 03:03:45;;;;;;;14.57;9.65;;;;;;;3.79;100.00;99916.31;4956272;29;20038;-73
2021/01/26 03:06:33;;;;;;;14.07;9.40;;;;;;;4.21;100.00;99928.22;4956661;29;20058;-73
2021/01/26 03:09:32;;;;;;;14.75;9.98;;;;;;;4.33;100.00;99929.03;4956601;28;20055;-74
2021/01/26 03:12:25;;;;;;;12.38;9.27;;;;;;;4.58;100.00;99930.63;4956907;28;20037;-73
2021/01/26 03:15:17;;;;;;;14.63;9.38;;;;;;;4.69;100.00;99917.56;4956484;28;20452;-73
2021/01/26 03:18:07;;;;;;;14.55;9.50;;;;;;;4.87;100.00;99917.47;4956326;29;20071;-73
2021/01/26 03:20:59;;;;;;;14.15;9.68;;;;;;;4.66;100.00;99915.88;4955830;28;20027;-74
2021/01/26 03:23:49;;;;;;;16.08;10.60;;;;;;;4.54;100.00;99934.09;4956711;29;20061;-73
2021/01/26 03:26:35;;;;;;;14.40;9.82;;;;;;;4.94;100.00;99945.94;4955774;29;20369;-72
2021/01/26 03:29:28;;;;;;;14.98;10.18;;;;;;;4.93;100.00;99946.81;4942665;28;20035;-73
2021/01/26 03:32:22;;;;;;;19.42;10.90;;;;;;;4.70;100.00;99951.28;4958936;28;20452;-74
2021/01/26 03:35:08;;;;;;;19.63;12.18;;;;;;;4.91;100.00;99942.53;4959625;29;20377;-73
2021/01/26 03:38:02;;;;;;;17.60;11.65;;;;;;;5.09;100.00;99953.63;4959961;28;20034;-74
2021/01/26 03:40:52;;;;;;;17.27;11.15;;;;;;;4.59;100.00;99947.06;4959762;29;20038;-73
2021/01/26 03:43:38;;;;;;;15.70;11.32;;;;;;;5.09;100.00;99929.38;4958394;29;20413;-73
2021/01/26 03:46:42;;;;;;;17.45;11.50;;;;;;;5.38;100.00;99923.06;4959702;29;20042;-72
2021/01/26 03:49:52;;;;;;;20.02;13.88;;;;;;;5.13;100.00;99934.56;4958954;29;20038;-73
2021/01/26 03:52:37;;;;;;;19.67;12.70;;;;;;;4.93;100.00;99946.81;4959260;28;20035;-73
2021/01/26 03:55:38;;;;;;;20.73;12.50;;;;;;;4.97;100.00;99943.34;4959315;28;20043;-73
2021/01/26 03:58:44;;;;;;;19.70;12.93;;;;;;;5.05;100.00;99938.06;4959367;29;20027;-73
2021/01/26 04:01:45;;;;;;;20.38;13.85;;;;;;;4.89;100.00;99949.44;4958632;28;20023;-73
2021/01/26 04:04:35;;;;;;;24.48;14.60;;;;;;;4.89;100.00;99955.50;4959267;29;20060;-72
2021/01/26 04:07:33;;;;;;;22.42;14.73;;;;;;;5.13;100.00;99947.53;4958122;29;20027;-72
2021/01/26 04:10:29;;;;;;;21.48;13.60;;;;;;;5.05;100.00;99938.94;4958414;29;20089;-74
2021/01/26 04:13:21;;;;;;;20.02;13.68;;;;;;;5.03;100.00;99935.47;4944898;28;20031;-73
2021/01/26 04:16:07;;;;;;;21.45;14.60;;;;;;;4.82;100.00;99929.59;4958446;29;20038;-74
2021/01/26 04:18:56;;;;;;;23.38;15.30;;;;;;;5.10;100.00;99924.19;4958688;29;20528;-73
2021/01/26 04:21:47;;;;;;;25.35;15.27;;;;;;;4.97;100.00;99922.56;4958505;28;20364;-73
2021/01/26 04:24:34;;;;;;;22.05;15.57;;;;;;;5.33;100.00;99942.16;4957978;29;20055;-74
2021/01/26 04:27:24;;;;;;;21.77;14.48;;;;;;;5.39;100.00;99940.38;4958466;29;20034;-73
2021/01/26 04:30:10;;;;;;;20.98;15.40;;;;;;;5.03;100.00;99940.69;4944900;29;20031;-74
2021/01/26 04:33:05;;;;;;;22.35;15.10;;;;;;;5.07;100.00;99946.72;4957462;28;20420;-74
2021/01/26 04:35:51;;;;;;;20.80;14.88;;;;;;;4.89;100.00;99946.84;4945076;29;20023;-74
2021/01/26 04:38:37;;;;;;;23.63;15.43;;;;;;;4.47;100.00;99944.53;4943921;29;20027;-73
2021/01/26 04:41:26;;;;;;;23.13;16.08;;;;;;;4.50;100.00;99966.09;4958863;28;20028;-73
2021/01/26 04:44:19;;;;;;;21.58;14.90;;;;;;;5.31;100.00;99970.75;4957758;29;20023;-73
2021/01/26 04:47:16;;;;;;;25.33;15.48;;;;;;;5.01;100.00;99983.09;4957764;29;20094;-73
2021/01/26 04:50:29;;;;;;;21.42;14.18;;;;;;;5.19;100.00;99994.19;4943763;29;20050;-73
2021/01/26 04:53:45;;;;;;;22.13;15.00;;;;;;;5.38;100.00;100004.47;4958694;28;20038;-73
2021/01/26 04:56:34;;;;;;;21.13;13.77;;;;;;;5.23;100.00;100005.44;4943420;29;20047;-73
2021/01/26 04:59:45;;;;;;;18.98;13.20;;;;;;;5.75;100.00;100000.66;4958535;28;20027;-73
2021/01/26 05:02:50;;;;;;;21.35;13.68;;;;;;;5.46;100.00;99997.47;4943694;28;20055;-73
2021/01/26 05:05:40;;;;;;;18.45;12.75;;;;;;;5.07;100.00;100002.06;4944398;28;20170;-74
2021/01/26 05:08:31;;;;;;;18.73;11.65;;;;;;;5.10;100.00;100004.66;4956876;29;20031;-74
2021/01/26 05:11:20;;;;;;;19.65;11.52;;;;;;;5.00;100.00;100009.94;4957203;28;20042;-74
2021/01/26 05:14:21;;;;;;;19.80;11.35;;;;;;;5.13;100.00;100008.97;4957116;29;20349;-73
2021/01/26 05:17:16;;;;;;;18.27;11.63;;;;;;;5.22;100.00;99998.50;4958149;29;20426;-74
2021/01/26 05:20:10;;;;;;;22.00;13.20;;;;;;;5.38;100.00;100009.66;4956989;28;20360;-73
2021/01/26 05:23:05;;;;;;;19.98;14.63;;;;;;;4.58;100.00;99998.06;4957028;28;20031;-74
2021/01/26 05:25:53;;;;;;;24.00;15.45;;;;;;;4.37;100.00;100008.53;4956974;29;20356;-74
2021/01/26 05:28:44;;;;;;;24.33;15.38;;;;;;;4.82;100.00;100017.81;4957070;29;20110;-74
2021/01/26 05:31:32;;;;;;;24.10;15.10;;;;;;;4.86;100.00;100017.78;4956977;28;20031;-74
2021/01/26 05:34:19;;;;;;;26.95;15.73;;;;;;;4.73;100.00;100021.34;4956568;29;20169;-73
2021/01/26 05:37:10;;;;;;;24.33;15.85;;;;;;;4.92;100.00;100025.56;4943736;28;20027;-74
2021/01/26 05:40:19;;;;;;;23.65;16.50;;;;;;;4.82;100.00;100029.06;4957020;29;20384;-73
2021/01/26 05:43:07;;;;;;;23.98;16.35;;;;;;;5.29;100.00;100026.16;4956257;28;20034;-73
2021/01/26 05:45:57;;;;;;;37.08;22.75;;;;;;;5.06;100.00;100034.09;4956944;29;20444;-74
2021/01/26 05:48:50;;;;;;;42.53;26.58;;;;;;;5.22;100.00;100014.97;4957072;29;20452;-72
2021/01/26 05:51:39;;;;;;;34.22;20.73;;;;;;;4.80;100.00;99991.91;4956315;28;20082;-75
2021/01/26 05:54:26;;;;;;;34.55;21.42;;;;;;;4.79;100.00;99979.78;4955096;28;20031;-74
2021/01/26 05:57:12;;;;;;;33.67;22.10;;;;;;;4.58;100.00;99968.66;4955733;29;20141;-73
2021/01/26 06:00:15;;;;;;;37.30;22.92;;;;;;;5.00;100.00;99965.81;4944749;28;20050;-73
2021/01/26 06:03:18;;;;;;;36.25;21.70;;;;;;;4.83;100.00;99976.28;4942808;28;20023;-76
2021/01/26 06:06:04;;;;;;;35.17;22.35;;;;;;;5.15;100.00;99981.28;4957794;28;20028;-74
2021/01/26 06:08:54;;;;;;;32.63;19.65;;;;;;;5.26;100.00;99990.69;4956711;28;20512;-75
2021/01/26 06:11:40;;;;;;;32.25;19.88;;;;;;;4.97;100.00;100003.03;4956501;28;20035;-73
2021/01/26 06:14:26;;;;;;;35.17;19.23;;;;;;;5.13;100.00;100008.97;4955965;29;20560;-73
2021/01/26 06:17:18;;;;;;;32.13;18.48;;;;;;;5.38;100.00;99998.38;4956243;29;20042;-73
2021/01/26 06:20:19;;;;;;;27.15;16.70;;;;;;;5.21;100.00;100004.59;4955577;29;20034;-73
2021/01/26 06:23:17;;;;;;;24.08;14.98;;;;;;;5.30;100.00;99995.00;4957429;28;20376;-73
2021/01/26 06:26:08;;;;;;;21.85;15.02;;;;;;;5.16;100.00;99995.97;4955999;29;20031;-73
2021/01/26 06:29:19;;;;;;;21.27;13.15;;;;;;;5.15;100.00;100023.66;4956662;29;20038;-75
2021/01/26 06:32:13;;;;;;;19.00;13.73;;;;;;;5.27;100.00;100041.75;4955398;28;20027;-73
2021/01/26 06:35:14;;;;;;;19.30;12.63;;;;;;;5.32;100.00;100037.38;4956148;29;20094;-73
2021/01/26 06:38:15;;;;;;;17.58;12.00;;;;;;;5.51;100.00;100040.72;4955060;29;20102;-74
2021/01/26 06:41:07;;;;;;;16.38;11.57;;;;;;;5.87;100.00;100036.97;4944047;28;20027;-74
2021/01/26 06:44:31;;;;;;;19.05;11.40;;;;;;;5.47;100.00;100023.44;4955782;29;20031;-74
2021/01/26 06:47:48;;;;;;;16.55;11.05;;;;;;;6.02;100.00;100024.66;4941224;29;20349;-73
2021/01/26 06:50:39;;;;;;;18.08;11.60;;;;;;;5.56;100.00;100043.25;4955241;29;20042;-73
2021/01/26 06:53:40;;;;;;;18.98;12.13;;;;;;;6.26;100.00;100063.41;4956662;28;20460;-74
2021/01/26 06:56:57;;;;;;;20.92;13.38;;;;;;;6.48;100.00;100071.84;4955984;28;20106;-74
2021/01/26 07:00:08;;;;;;;21.27;13.82;;;;;;;6.18;100.00;100056.59;4956532;29;20050;-74
2021/01/26 07:03:15;;;;;;;23.83;13.50;;;;;;;6.60;100.00;100051.75;4955785;28;20019;-74
2021/01/26 07:06:13;;;;;;;22.83;14.85;;;;;;;6.76;100.00;100049.81;4957995;28;20023;-74
2021/01/26 07:09:12;;;;;;;29.75;14.43;;;;;;;6.54;100.00;100056.16;4946916;28;20023;-75
2021/01/26 07:12:10;;;;;;;22.67;13.10;;;;;;;6.39;100.00;100074.56;4947745;28;20027;-73
2021/01/26 07:15:08;;;;;;;30.95;17.17;;;;;;;6.67;100.00;100089.00;4959352;29;20027;-73
2021/01/26 07:18:21;;;;;;;32.40;16.48;;;;;;;6.99;100.00;100105.06;4959467;29;20452;-75
2021/01/26 07:21:13;;;;;;;36.80;20.77;;;;;;;6.76;100.00;100113.16;4959889;28;20023;-73
2021/01/26 07:24:05;;;;;;;44.53;24.58;;;;;;;7.13;100.00;100098.81;4959607;29;20040;-73
2021/01/26 07:27:28;;;;;;;43.45;25.00;;;;;;;6.45;100.00;100105.69;4959411;29;20083;-74
2021/01/26 07:30:25;;;;;;;29.92;20.40;;;;;;;6.33;100.00;100114.50;4959501;29;20023;-74
2021/01/26 07:33:47;;;;;;;36.28;19.13;;;;;;;6.16;100.00;100123.34;4959198;28;20023;-74
2021/01/26 07:36:37;;;;;;;30.52;18.15;;;;;;;5.61;100.00;100120.31;4944702;29;20036;-74
2021/01/26 07:39:33;;;;;;;27.05;16.27;;;;;;;5.98;100.00;100129.56;4959188;29;20038;-74
2021/01/26 07:42:31;;;;;;;25.00;16.65;;;;;;;5.93;100.00;100127.88;4959225;28;20046;-72
2021/01/26 07:45:32;;;;;;;32.45;19.98;;;;;;;5.97;100.00;100137.38;4959324;29;20031;-72
2021/01/26 07:48:30;;;;;;;28.08;17.95;;;;;;;6.17;100.00;100120.72;4959519;29;20106;-73
2021/01/26 07:51:21;;;;;;;30.33;19.45;;;;;;;5.88;100.00;100121.84;4958287;28;20098;-72
2021/01/26 07:54:21;;;;;;;31.20;19.90;;;;;;;5.93;100.00;100123.56;4945615;29;20027;-74
2021/01/26 07:57:08;;;;;;;31.77;21.20;;;;;;;5.93;100.00;100133.94;4958196;29;20063;-72
2021/01/26 07:59:58;;;;;;;28.85;20.08;;;;;;;5.48;100.00;100118.66;4959366;29;20368;-72
2021/01/26 08:02:54;;;;;;;34.53;19.90;;;;;;;5.66;100.00;100123.72;4959899;28;20031;-74
2021/01/26 08:05:46;;;;;;;31.80;19.27;;;;;;;5.75;100.00;100138.41;4964660;29;20429;-73
2021/01/26 08:08:36;;;;;;;27.35;18.80;;;;;;;5.74;100.00;100128.88;4965809;28;20034;-74
2021/01/26 08:11:25;;;;;;;28.05;17.95;;;;;;;5.99;100.00;100133.03;4967775;28;20023;-73
2021/01/26 08:14:10;;;;;;;26.92;18.85;;;;;;;6.34;100.00;100121.44;4962204;28;20087;-74
2021/01/26 08:16:58;;;;;;;27.63;17.90;;;;;;;6.56;100.00;100127.28;4961153;28;20035;-73
2021/01/26 08:19:48;;;;;;;26.73;17.65;;;;;;;6.00;100.00;100133.03;4958005;29;20057;-74
2021/01/26 08:22:36;;;;;;;31.70;20.80;;;;;;;6.16;100.00;100133.75;4960507;28;20031;-73
2021/01/26 08:25:22;;;;;;;30.27;20.27;;;;;;;6.51;100.00;100142.91;4943747;29;20519;-72
2021/01/26 08:28:09;;;;;;;33.60;20.90;;;;;;;6.76;100.00;100143.53;4945940;28;20118;-74
2021/01/26 08:30:59;;;;;;;31.60;21.63;;;;;;;6.56;100.00;100150.69;4958785;28;20037;-74
2021/01/26 08:33:45;;;;;;;37.40;23.33;;;;;;;6.45;100.00;100139.53;4956940;29;20491;-74
2021/01/26 08:36:37;;;;;;;35.03;21.80;;;;;;;6.06;100.00;100137.31;4944831;29;20034;-73
2021/01/26 08:39:44;;;;;;;31.05;20.38;;;;;;;5.86;100.00;100139.22;4957352;29;20027;-73
2021/01/26 08:42:59;;;;;;;32.00;22.40;;;;;;;6.07;100.00;100155.47;4958437;28;20106;-74
2021/01/26 08:45:45;;;;;;;32.42;21.33;;;;;;;6.84;100.00;100167.75;4958394;28;20360;-73
2021/01/26 08:48:31;;;;;;;29.33;20.15;;;;;;;6.49;100.00;100173.31;4959298;28;20169;-73
2021/01/26 08:51:25;;;;;;;35.95;20.77;;;;;;;6.27;100.00;100183.94;4957630;28;20109;-75
2021/01/26 08:54:10;;;;;;;29.10;19.15;;;;;;;6.37;100.00;100189.03;4957993;29;20039;-74
2021/01/26 08:56:56;;;;;;;29.00;19.45;;;;;;;6.09;100.00;100199.69;4956695;28;20059;-74
2021/01/26 08:59:42;;;;;;;29.27;19.60;;;;;;;5.99;100.00;100203.22;4956759;29;20046;-74
2021/01/26 09:02:39;;;;;;;33.40;19.77;;;;;;;6.34;100.00;100222.03;4956596;28;20034;-73
2021/01/26 09:05:39;;;;;;;32.13;19.08;;;;;;;5.61;100.00;100225.94;4958091;29;20061;-73
2021/01/26 09:08:40;;;;;;;28.75;18.63;;;;;;;5.86;100.00;100222.41;4957178;29;20365;-73
2021/01/26 09:11:37;;;;;;;29.95;18.80;;;;;;;6.23;100.00;100229.91;4945830;28;20143;-73
2021/01/26 09:14:41;;;;;;;30.08;18.27;;;;;;;6.13;100.00;100232.59;4957006;29;20027;-73
2021/01/26 09:17:35;;;;;;;30.17;18.77;;;;;;;5.90;100.00;100240.53;4957983;29;20069;-73
2021/01/26 09:20:24;;;;;;;29.40;18.58;;;;;;;5.52;100.00;100244.19;4957015;29;20110;-73
2021/01/26 09:23:11;;;;;;;32.20;20.40;;;;;;;5.80;100.00;100244.06;4943857;29;20031;-73
2021/01/26 09:25:57;;;;;;;30.60;19.70;;;;;;;5.63;100.00;100239.81;4943716;28;20042;-72
2021/01/26 09:28:47;;;;;;;29.05;18.80;;;;;;;6.07;100.00;100243.03;4945007;28;20114;-74
2021/01/26 09:36:45;;;;;;;28.15;16.88;;;;;;;6.23;100.00;100248.09;5013965;23;20063;-73
2021/01/26 09:39:31;;;;;;;23.80;15.90;;;;;;;6.13;100.00;100267.25;4962679;28;20030;-73
2021/01/26 09:42:23;;;;;;;25.50;16.88;;;;;;;6.08;100.00;100263.84;4963178;28;20030;-73
2021/01/26 09:45:10;;;;;;;22.25;15.38;;;;;;;6.12;100.00;100262.06;4975276;28;20023;-74
2021/01/26 09:47:56;;;;;;;21.17;14.85;;;;;;;6.50;100.00;100258.31;4977061;28;20439;-74
2021/01/26 09:50:41;;;;;;;22.27;16.02;;;;;;;6.21;100.00;100256.78;4975045;28;20027;-75
2021/01/26 09:53:27;;;;;;;24.48;17.02;;;;;;;6.16;100.00;100264.66;4976234;28;20031;-74
2021/01/26 09:56:18;;;;;;;23.45;16.70;;;;;;;5.94;100.00;100262.22;4975528;28;20029;-73
2021/01/26 09:59:08;;;;;;;23.88;16.33;;;;;;;6.14;100.00;100250.78;4975954;28;20050;-74
2021/01/26 10:01:54;;;;;;;22.63;15.65;;;;;;;6.22;100.00;100264.59;4974954;28;20108;-75
2021/01/26 10:04:42;;;;;;;22.55;15.18;;;;;;;6.18;100.00;100264.66;4961528;28;20018;-73
2021/01/26 10:07:28;;;;;;;23.95;15.20;;;;;;;6.06;100.00;100269.94;4975130;28;20452;-73
2021/01/26 10:10:27;;;;;;;24.45;15.60;;;;;;;6.25;100.00;100274.09;4975399;28;20053;-72
2021/01/26 10:13:40;;;;;;;24.25;15.95;;;;;;;6.13;100.00;100279.41;4961221;28;20787;-73
2021/01/26 10:16:34;;;;;;;21.23;15.57;;;;;;;6.18;100.00;100282.84;4975429;28;20027;-74
2021/01/26 10:19:24;;;;;;;22.48;16.35;;;;;;;5.67;100.00;100276.19;4975029;28;20040;-73
2021/01/26 10:22:29;;;;;;;24.27;16.80;;;;;;;5.40;100.00;100282.34;4975016;28;20069;-73
2021/01/26 10:25:16;;;;;;;28.05;18.67;;;;;;;5.98;100.00;100290.75;4975506;28;20082;-73
2021/01/26 10:28:12;;;;;;;21.67;15.75;;;;;;;5.63;100.00;100281.41;4975700;28;20349;-74
2021/01/26 10:30:58;;;;;;;26.58;17.52;;;;;;;5.97;100.00;100298.56;4975783;28;20041;-73
2021/01/26 10:33:43;;;;;;;24.92;16.98;;;;;;;5.53;100.00;100292.69;4974843;28;20042;-74
2021/01/26 10:36:29;;;;;;;26.85;18.30;;;;;;;5.30;100.00;100287.56;4974610;28;20057;-73
2021/01/26 10:39:28;;;;;;;29.80;19.95;;;;;;;5.72;100.00;100294.34;4974800;28;20394;-73
2021/01/26 10:42:14;;;;;;;32.15;20.35;;;;;;;5.29;100.00;100299.72;4978990;28;20035;-74
2021/01/26 10:45:00;;;;;;;27.73;20.33;;;;;;;5.52;100.00;100293.56;4978564;28;20168;-73
2021/01/26 10:47:45;;;;;;;27.63;19.65;;;;;;;5.29;100.00;100291.91;4966096;28;20026;-75
2021/01/26 10:50:31;;;;;;;28.38;19.58;;;;;;;5.40;100.00;100294.47;4977764;28;20019;-76
2021/01/26 10:53:38;;;;;;;31.20;20.77;;;;;;;5.00;100.00;100306.72;4980027;28;20054;-73
2021/01/26 10:56:24;;;;;;;32.53;20.77;;;;;;;5.25;100.00;100310.09;4978656;28;20387;-74
2021/01/26 10:59:10;;;;;;;30.95;19.10;;;;;;;5.47;100.00;100316.09;4981712;28;20423;-74
2021/01/26 11:01:56;;;;;;;28.77;20.40;;;;;;;5.03;100.00;100319.66;4980224;28;20039;-73
2021/01/26 11:04:41;;;;;;;29.88;20.98;;;;;;;5.68;100.00;100311.69;4979603;28;20486;-74
2021/01/26 11:07:27;;;;;;;36.08;23.25;;;;;;;5.31;100.00;100313.53;4979881;28;20026;-74
2021/01/26 11:10:13;;;;;;;36.05;24.83;;;;;;;5.31;100.00;100310.09;4979081;28;20125;-74
2021/01/26 11:12:59;;;;;;;31.33;21.70;;;;;;;5.11;100.00;100309.28;4966205;28;20032;-73
2021/01/26 11:15:45;;;;;;;28.83;19.45;;;;;;;4.87;100.00;100304.97;4978154;28;20041;-73
2021/01/26 11:18:31;;;;;;;30.08;21.08;;;;;;;5.20;100.00;100297.13;4979588;28;20127;-74
2021/01/26 11:21:16;;;;;;;31.80;21.30;;;;;;;5.28;100.00;100297.97;4965308;28;20030;-73
2021/01/26 11:24:02;;;;;;;29.05;19.83;;;;;;;5.03;100.00;100306.69;4979217;28;20058;-74
2021/01/26 11:26:48;;;;;;;30.85;20.88;;;;;;;5.12;100.00;100313.59;4977497;28;20062;-74
2021/01/26 11:29:35;;;;;;;31.73;21.25;;;;;;;4.91;100.00;100303.25;4979333;28;20526;-72
2021/01/26 11:32:21;;;;;;;27.65;19.58;;;;;;;5.13;100.00;100305.81;4977185;28;20375;-73
2021/01/26 11:35:11;;;;;;;31.13;20.15;;;;;;;4.83;100.00;100294.63;4978213;28;20117;-72
2021/01/26 11:37:57;;;;;;;27.95;18.98;;;;;;;5.21;100.00;100292.78;4977283;28;20114;-72
2021/01/26 11:40:43;;;;;;;27.75;18.48;;;;;;;4.99;100.00;100301.53;4977846;28;20054;-72
2021/01/26 11:43:29;;;;;;;30.13;20.17;;;;;;;5.07;100.00;100316.19;4977290;28;20030;-72
2021/01/26 11:46:15;;;;;;;28.25;19.60;;;;;;;5.38;100.00;100311.78;4963552;28;20476;-72
2021/01/26 11:49:00;;;;;;;30.65;19.77;;;;;;;5.57;100.00;100310.84;4965371;28;20522;-73
2021/01/26 11:51:46;;;;;;;36.13;22.90;;;;;;;4.51;100.00;100305.00;4964576;28;20031;-72
2021/01/26 11:54:32;;;;;;;35.22;22.95;;;;;;;4.58;100.00;100308.44;4979191;28;20038;-72
2021/01/26 11:57:18;;;;;;;36.55;22.52;;;;;;;4.57;100.00;100310.19;4978019;28;20097;-72
2021/01/26 12:00:09;;;;;;;29.73;21.35;;;;;;;5.08;100.00;100306.69;4977818;28;20113;-73
2021/01/26 12:02:56;;;;;;;35.95;23.05;;;;;;;4.85;100.00;100311.91;4977567;28;20117;-73
2021/01/26 12:05:42;;;;;;;35.40;21.55;;;;;;;5.09;100.00;100309.28;4978118;28;20395;-72
2021/01/26 12:08:27;;;;;;;30.05;20.35;;;;;;;5.08;100.00;100317.06;4976862;28;20199;-72
2021/01/26 12:11:13;;;;;;;30.10;20.73;;;;;;;5.07;100.00;100316.19;4965600;28;20030;-72
2021/01/26 12:14:00;;;;;;;31.50;20.10;;;;;;;4.61;100.00;100334.41;4976948;28;20027;-73
2021/01/26 12:16:46;;;;;;;28.73;19.48;;;;;;;4.62;100.00;100334.41;4977686;28;20023;-74
2021/01/26 12:19:31;;;;;;;31.95;22.50;;;;;;;4.89;100.00;100339.59;4977128;28;20041;-73
2021/01/26 12:22:17;;;;;;;29.92;19.73;;;;;;;4.85;100.00;100340.47;4977274;28;20037;-75
2021/01/26 12:25:04;;;;;;;28.80;19.30;;;;;;;4.99;100.00;100343.91;4977483;28;20490;-75
2021/01/26 12:27:50;;;;;;;28.70;18.63;;;;;;;4.80;100.00;100349.13;4977129;28;20045;-75
2021/01/26 12:30:36;;;;;;;27.98;18.77;;;;;;;4.74;100.00;100347.38;4977255;28;20031;-73
2021/01/26 12:33:22;;;;;;;28.95;19.42;;;;;;;4.77;100.00;100341.31;4977400;28;20447;-73
2021/01/26 12:36:08;;;;;;;26.77;17.38;;;;;;;4.64;100.00;100340.47;4977054;28;20372;-73
2021/01/26 12:38:54;;;;;;;26.90;17.90;;;;;;;4.74;100.00;100344.78;4963465;28;20031;-74
2021/01/26 12:41:39;;;;;;;35.15;23.55;;;;;;;4.67;100.00;100345.63;4977041;28;20420;-74
2021/01/26 12:44:25;;;;;;;29.65;19.33;;;;;;;4.87;100.00;100337.88;4976807;28;20022;-74
2021/01/26 12:47:12;;;;;;;28.80;18.15;;;;;;;4.91;100.00;100345.63;4977284;28;20379;-75
2021/01/26 12:49:57;;;;;;;27.15;17.35;;;;;;;4.99;100.00;100349.09;4976915;28;20107;-72
2021/01/26 12:52:43;;;;;;;25.73;17.48;;;;;;;4.94;100.00;100353.44;4977203;28;20410;-74
2021/01/26 12:55:29;;;;;;;24.65;16.88;;;;;;;4.46;100.00;100352.56;4975926;28;20109;-73
2021/01/26 12:58:15;;;;;;;22.75;15.48;;;;;;;4.74;100.00;100351.69;4977115;28;20433;-73
2021/01/26 13:01:01;;;;;;;24.35;16.13;;;;;;;4.75;100.00;100362.06;4976575;28;20023;-74
2021/01/26 13:03:47;;;;;;;27.55;18.23;;;;;;;5.14;100.00;100367.25;4976585;28;20109;-74
2021/01/26 13:06:32;;;;;;;23.70;16.23;;;;;;;4.79;100.00;100369.00;4980909;28;20027;-73
2021/01/26 13:09:18;;;;;;;22.80;15.68;;;;;;;4.84;100.00;100380.25;4976715;28;20019;-74
2021/01/26 13:12:04;;;;;;;22.15;15.18;;;;;;;4.50;100.00;100367.25;4962250;28;20039;-74
2021/01/26 13:14:51;;;;;;;21.52;15.00;;;;;;;4.67;100.00;100370.75;4962807;28;20097;-74
2021/01/26 13:17:37;;;;;;;22.63;15.73;;;;;;;4.72;100.00;100376.78;4963314;28;20050;-74
2021/01/26 13:20:25;;;;;;;22.45;15.38;;;;;;;4.46;100.00;100381.94;4975943;28;20482;-74
2021/01/26 13:23:11;;;;;;;23.20;15.60;;;;;;;4.69;100.00;100384.56;4977375;28;20061;-72
2021/01/26 13:26:21;;;;;;;23.60;15.68;;;;;;;4.97;100.00;100394.09;4978609;28;20366;-77
2021/01/26 13:29:07;;;;;;;27.33;17.35;;;;;;;4.56;100.00;100399.28;4963057;28;20114;-73
2021/01/26 13:31:53;;;;;;;25.88;17.33;;;;;;;4.49;100.00;100392.34;4977499;28;20079;-75
2021/01/26 13:34:40;;;;;;;28.48;18.23;;;;;;;3.92;100.00;100388.72;4977043;28;20030;-74